Time;durP1;ratioP1;P1;durP2;ratioP2;P2;SDS_P1;SDS_P2;PMS_P1;PMS_P2;Temp;Humidity;BMP_temperature;BMP_pressure;BME280_temperature;BME280_humidity;BME280_pressure;Samples;Min_cycle;Max_cycle;Signal;HPM_P1;HPM_P2
2023/07/23 00:01:48;;;;;;;1.33;0.90;;;18.30;99.90;;;;;;5037000;28;20490;-81
2023/07/23 00:04:15;;;;;;;0.90;0.90;;;18.30;99.90;;;;;;5037072;28;20454;-81
2023/07/23 00:06:43;;;;;;;1.10;1.00;;;18.30;99.90;;;;;;5036747;28;20435;-81
2023/07/23 00:09:10;;;;;;;1.00;1.00;;;18.30;99.90;;;;;;5036753;28;20442;-81
2023/07/23 00:11:37;;;;;;;0.87;0.80;;;18.30;99.90;;;;;;5036580;28;20533;-80
2023/07/23 00:14:03;;;;;;;1.20;1.10;;;18.30;99.90;;;;;;5037595;28;20829;-81
2023/07/23 00:16:30;;;;;;;1.03;0.80;;;18.20;99.90;;;;;;5036853;28;20450;-81
2023/07/23 00:18:57;;;;;;;2.00;0.80;;;18.20;99.90;;;;;;5036644;28;20479;-81
2023/07/23 00:21:24;;;;;;;1.40;1.00;;;18.20;99.90;;;;;;5036618;28;20489;-81
2023/07/23 00:23:52;;;;;;;2.00;1.20;;;18.20;99.90;;;;;;5036698;28;20446;-81
2023/07/23 00:26:19;;;;;;;1.43;0.97;;;18.20;99.90;;;;;;5036316;28;20508;-80
2023/07/23 00:28:45;;;;;;;4.30;1.40;;;18.10;99.90;;;;;;5036326;28;20803;-81
2023/07/23 00:31:12;;;;;;;2.07;1.20;;;18.10;99.90;;;;;;5036235;28;20840;-81
2023/07/23 00:33:39;;;;;;;1.80;1.03;;;18.10;99.90;;;;;;5036205;28;20443;-81
2023/07/23 00:36:06;;;;;;;1.63;1.20;;;18.10;99.90;;;;;;5036429;28;20454;-81
2023/07/23 00:38:32;;;;;;;1.00;1.00;;;17.90;99.90;;;;;;5037245;28;20450;-81
2023/07/23 00:41:00;;;;;;;1.90;0.93;;;18.00;99.90;;;;;;5036250;28;20451;-81
2023/07/23 00:43:27;;;;;;;2.30;1.10;;;17.90;99.90;;;;;;5036295;28;20505;-80
2023/07/23 00:45:54;;;;;;;2.10;1.33;;;18.00;99.90;;;;;;5036953;28;20781;-80
2023/07/23 00:48:21;;;;;;;1.13;1.03;;;17.90;99.90;;;;;;5036270;28;20442;-80
2023/07/23 00:50:47;;;;;;;2.97;1.20;;;17.90;99.90;;;;;;5035885;28;20982;-80
2023/07/23 00:53:14;;;;;;;1.70;0.80;;;18.00;99.90;;;;;;5035921;28;20957;-80
2023/07/23 00:55:41;;;;;;;1.90;1.20;;;17.90;99.90;;;;;;5036131;28;20478;-80
2023/07/23 00:58:10;;;;;;;1.30;0.93;;;17.90;99.90;;;;;;5036092;28;20454;-81
2023/07/23 01:00:37;;;;;;;1.70;1.50;;;17.90;99.90;;;;;;5035669;28;20560;-81
2023/07/23 01:03:04;;;;;;;1.73;1.10;;;17.90;99.90;;;;;;5035979;28;20474;-81
2023/07/23 01:05:32;;;;;;;1.13;1.03;;;17.90;99.90;;;;;;5035930;28;20450;-81
2023/07/23 01:07:59;;;;;;;1.30;0.83;;;17.90;99.90;;;;;;5035755;28;20459;-81
2023/07/23 01:10:26;;;;;;;1.10;1.00;;;17.90;99.90;;;;;;5035789;28;20478;-80
2023/07/23 01:12:54;;;;;;;1.77;1.03;;;18.00;99.90;;;;;;5035468;28;20954;-80
2023/07/23 01:15:22;;;;;;;1.83;1.20;;;18.00;99.90;;;;;;5035537;28;20939;-81
2023/07/23 01:17:51;;;;;;;1.47;0.90;;;18.00;99.90;;;;;;5035719;28;20457;-81
2023/07/23 01:20:18;;;;;;;1.33;1.00;;;18.00;99.90;;;;;;5035542;28;20455;-81
2023/07/23 01:22:46;;;;;;;1.30;0.80;;;18.00;99.90;;;;;;5035577;28;20474;-81
2023/07/23 01:25:13;;;;;;;1.67;1.20;;;17.90;99.90;;;;;;5035389;28;20482;-81
2023/07/23 01:27:39;;;;;;;2.70;1.23;;;17.90;99.90;;;;;;5035200;28;20816;-81
2023/07/23 01:30:08;;;;;;;1.60;0.80;;;17.90;99.90;;;;;;5035057;28;20955;-81
2023/07/23 01:32:34;;;;;;;0.80;0.80;;;17.90;99.90;;;;;;5035475;28;20439;-81
2023/07/23 01:35:05;;;;;;;1.10;0.90;;;17.80;99.90;;;;;;5035384;28;20451;-81
2023/07/23 01:37:32;;;;;;;1.60;0.90;;;17.80;99.90;;;;;;5035381;28;20435;-81
2023/07/23 01:40:00;;;;;;;1.70;1.00;;;17.80;99.90;;;;;;5035313;28;20816;-81
2023/07/23 01:42:27;;;;;;;0.80;0.80;;;17.80;99.90;;;;;;5035120;28;20482;-81
2023/07/23 01:44:54;;;;;;;2.60;0.80;;;17.70;99.90;;;;;;5034901;28;20946;-81
2023/07/23 01:47:21;;;;;;;2.70;1.00;;;17.70;99.90;;;;;;5034823;28;20827;-81
2023/07/23 01:49:47;;;;;;;1.70;1.03;;;17.70;99.90;;;;;;5035085;28;20454;-81
2023/07/23 01:52:14;;;;;;;0.60;0.60;;;17.70;99.90;;;;;;5034674;28;20473;-81
2023/07/23 01:54:41;;;;;;;1.33;1.23;;;17.70;99.90;;;;;;5034886;28;20430;-81
2023/07/23 01:57:09;;;;;;;0.97;0.80;;;17.70;99.90;;;;;;5034971;28;20454;-81
2023/07/23 01:59:36;;;;;;;1.07;0.80;;;17.70;99.90;;;;;;5034648;28;20458;-81
2023/07/23 02:02:06;;;;;;;1.83;1.20;;;17.70;99.90;;;;;;5034459;28;20462;-81
2023/07/23 02:04:33;;;;;;;1.30;1.20;;;17.60;99.90;;;;;;5034841;28;20438;-80
2023/07/23 02:07:00;;;;;;;1.77;1.10;;;17.60;99.90;;;;;;5034757;28;20451;-81
2023/07/23 02:09:26;;;;;;;0.80;0.80;;;17.60;99.90;;;;;;5034508;28;20961;-81
2023/07/23 02:11:53;;;;;;;0.93;0.83;;;17.50;99.90;;;;;;5034652;28;20467;-81
2023/07/23 02:14:21;;;;;;;1.00;1.00;;;17.50;99.90;;;;;;5034379;28;20443;-81
2023/07/23 02:16:48;;;;;;;2.50;0.80;;;17.50;99.90;;;;;;5034569;28;20466;-81
2023/07/23 02:19:15;;;;;;;1.57;1.00;;;17.50;99.90;;;;;;5034297;28;20458;-81
2023/07/23 02:21:41;;;;;;;2.03;1.40;;;17.50;99.90;;;;;;5034209;28;20459;-81
2023/07/23 02:24:08;;;;;;;1.00;0.90;;;17.50;99.90;;;;;;5034314;28;20482;-81
2023/07/23 02:26:35;;;;;;;1.47;0.83;;;17.50;99.90;;;;;;5034020;28;20474;-81
2023/07/23 02:29:02;;;;;;;1.90;1.30;;;17.50;99.90;;;;;;5034339;28;20451;-81
2023/07/23 02:31:30;;;;;;;1.10;0.80;;;17.40;99.90;;;;;;5033957;28;20467;-81
2023/07/23 02:33:57;;;;;;;1.30;1.10;;;17.40;99.90;;;;;;5034029;28;20443;-81
2023/07/23 02:36:24;;;;;;;0.77;0.77;;;17.40;99.90;;;;;;5034239;28;20446;-81
2023/07/23 02:38:50;;;;;;;1.60;1.50;;;17.40;99.90;;;;;;5034213;28;20446;-81
2023/07/23 02:41:17;;;;;;;1.13;0.87;;;17.40;99.90;;;;;;5034092;28;20475;-81
2023/07/23 02:43:44;;;;;;;1.30;0.90;;;17.40;99.90;;;;;;5034043;28;20497;-81
2023/07/23 02:46:10;;;;;;;1.23;0.90;;;17.30;99.90;;;;;;5034066;28;20451;-81
2023/07/23 02:48:38;;;;;;;1.30;1.00;;;17.30;99.90;;;;;;5033996;28;20474;-80
2023/07/23 02:51:05;;;;;;;1.00;0.83;;;17.30;99.90;;;;;;5033579;28;20478;-80
2023/07/23 02:53:32;;;;;;;4.40;0.97;;;17.40;99.90;;;;;;5033715;28;20450;-80
2023/07/23 02:55:59;;;;;;;1.00;0.70;;;17.30;99.90;;;;;;5033920;28;20446;-80
2023/07/23 02:58:26;;;;;;;2.00;1.10;;;17.20;99.90;;;;;;5033537;28;20458;-81
2023/07/23 03:00:55;;;;;;;9.73;1.00;;;17.30;99.90;;;;;;5033428;28;20557;-81
2023/07/23 03:03:22;;;;;;;0.60;0.60;;;17.30;99.90;;;;;;5033340;28;21028;-81
2023/07/23 03:05:50;;;;;;;1.27;1.00;;;17.20;99.90;;;;;;5033725;28;20439;-81
2023/07/23 03:08:17;;;;;;;1.77;1.00;;;17.20;99.90;;;;;;5033441;28;20431;-81
2023/07/23 03:10:44;;;;;;;2.20;1.00;;;17.20;99.90;;;;;;5033568;28;20467;-81
2023/07/23 03:13:11;;;;;;;1.00;0.77;;;17.30;99.90;;;;;;5033301;28;20767;-80
2023/07/23 03:15:38;;;;;;;1.23;1.00;;;17.30;99.90;;;;;;5033681;28;20541;-80
2023/07/23 03:18:04;;;;;;;0.80;0.80;;;17.30;99.90;;;;;;5033346;28;20435;-81
2023/07/23 03:20:31;;;;;;;2.80;0.93;;;17.30;99.90;;;;;;5033134;28;20482;-81
2023/07/23 03:22:59;;;;;;;1.87;1.03;;;17.20;99.90;;;;;;5033169;28;20478;-80
2023/07/23 03:25:26;;;;;;;1.90;1.20;;;17.20;99.90;;;;;;5033199;28;20550;-80
2023/07/23 03:27:53;;;;;;;0.87;0.87;;;17.20;99.90;;;;;;5033180;28;20431;-80
2023/07/23 03:30:20;;;;;;;1.73;1.00;;;17.20;99.90;;;;;;5032898;28;20451;-80
2023/07/23 03:32:46;;;;;;;2.07;1.20;;;17.20;99.90;;;;;;5032993;28;20442;-80
2023/07/23 03:35:13;;;;;;;1.23;0.93;;;17.10;99.90;;;;;;5032971;28;20950;-80
2023/07/23 03:37:40;;;;;;;2.00;1.03;;;17.10;99.90;;;;;;5033318;28;20439;-80
2023/07/23 03:40:09;;;;;;;0.90;0.80;;;17.00;99.90;;;;;;5033236;28;20457;-80
2023/07/23 03:42:36;;;;;;;1.30;0.87;;;17.00;99.90;;;;;;5032862;28;20827;-80
2023/07/23 03:45:03;;;;;;;1.57;1.00;;;17.00;99.90;;;;;;5033252;28;20462;-80
2023/07/23 03:47:30;;;;;;;0.80;0.70;;;17.00;99.90;;;;;;5032952;28;20935;-80
2023/07/23 03:49:57;;;;;;;1.00;0.73;;;17.00;99.90;;;;;;5033201;28;20447;-80
2023/07/23 03:52:24;;;;;;;2.00;1.00;;;17.00;99.90;;;;;;5033042;28;20514;-80
2023/07/23 03:54:51;;;;;;;1.00;0.90;;;17.00;99.90;;;;;;5032863;28;20439;-80
2023/07/23 03:57:19;;;;;;;2.20;1.00;;;17.00;99.90;;;;;;5033121;28;20458;-80
2023/07/23 03:59:47;;;;;;;0.93;0.70;;;17.00;99.90;;;;;;5033507;28;20450;-80
2023/07/23 04:02:14;;;;;;;1.27;1.00;;;17.10;99.90;;;;;;5032819;28;20525;-80
2023/07/23 04:04:41;;;;;;;1.27;0.80;;;17.00;99.90;;;;;;5032684;28;20846;-80
2023/07/23 04:07:09;;;;;;;1.20;0.90;;;17.00;99.90;;;;;;5032963;28;20450;-81
2023/07/23 04:09:36;;;;;;;1.30;1.00;;;17.00;99.90;;;;;;5032978;28;20454;-80
2023/07/23 04:12:04;;;;;;;1.00;0.90;;;17.10;99.90;;;;;;5032884;28;20475;-80
2023/07/23 04:14:34;;;;;;;1.33;1.10;;;17.10;99.90;;;;;;5032548;28;20965;-82
2023/07/23 04:17:01;;;;;;;1.53;1.20;;;17.10;99.90;;;;;;5032997;28;20523;-82
2023/07/23 04:19:27;;;;;;;1.37;1.10;;;17.10;99.90;;;;;;5032887;28;20447;-82
2023/07/23 04:21:56;;;;;;;0.60;0.60;;;17.10;99.90;;;;;;5032835;28;20474;-83
2023/07/23 04:24:23;;;;;;;1.30;0.83;;;17.10;99.90;;;;;;5032616;28;20478;-82
2023/07/23 04:26:49;;;;;;;1.57;0.87;;;17.10;99.90;;;;;;5032454;28;20482;-82
2023/07/23 04:29:16;;;;;;;0.67;0.67;;;17.20;99.90;;;;;;5032840;28;20457;-82
2023/07/23 04:31:44;;;;;;;1.10;0.80;;;17.20;99.90;;;;;;5032750;28;20463;-83
2023/07/23 04:34:11;;;;;;;0.77;0.77;;;17.20;99.90;;;;;;5032448;28;20451;-82
2023/07/23 04:36:37;;;;;;;0.90;0.90;;;17.30;99.90;;;;;;5032449;28;20451;-81
2023/07/23 04:39:04;;;;;;;1.33;0.80;;;17.30;99.90;;;;;;5032851;28;20446;-81
2023/07/23 04:41:31;;;;;;;1.77;1.10;;;17.30;99.90;;;;;;5032636;28;20473;-81
2023/07/23 04:43:58;;;;;;;1.00;0.80;;;17.40;99.90;;;;;;5036015;28;20486;-81
2023/07/23 04:46:25;;;;;;;0.90;0.90;;;17.40;99.90;;;;;;5036121;28;20434;-81
2023/07/23 04:48:54;;;;;;;1.60;0.93;;;17.40;99.90;;;;;;5036240;28;20458;-81
2023/07/23 04:51:20;;;;;;;1.60;0.97;;;17.50;99.90;;;;;;5035892;28;20474;-81
2023/07/23 04:53:47;;;;;;;6.13;1.60;;;17.40;99.90;;;;;;5036035;28;20957;-81
2023/07/23 04:56:14;;;;;;;0.90;0.70;;;17.40;99.90;;;;;;5036148;28;20447;-81
2023/07/23 04:58:40;;;;;;;1.17;0.80;;;17.40;99.90;;;;;;5036116;28;20454;-80
2023/07/23 05:01:09;;;;;;;0.90;0.90;;;17.50;99.90;;;;;;5035732;28;20822;-81
2023/07/23 05:03:36;;;;;;;1.80;0.97;;;17.50;99.90;;;;;;5035925;28;20525;-81
2023/07/23 05:06:05;;;;;;;1.50;0.70;;;17.50;99.90;;;;;;5035968;28;20446;-83
2023/07/23 05:08:33;;;;;;;1.60;0.93;;;17.60;99.90;;;;;;5036416;28;20455;-83
2023/07/23 05:11:01;;;;;;;2.00;0.70;;;17.60;99.90;;;;;;5035527;28;20470;-83
2023/07/23 05:13:28;;;;;;;1.60;0.83;;;17.60;99.90;;;;;;5035789;28;20501;-82
2023/07/23 05:15:55;;;;;;;0.80;0.80;;;17.60;99.90;;;;;;5035533;28;20435;-83
2023/07/23 05:18:24;;;;;;;3.13;1.23;;;17.70;99.90;;;;;;5035739;28;20447;-83
2023/07/23 05:20:51;;;;;;;0.80;0.80;;;17.80;99.90;;;;;;5035337;28;20463;-83
2023/07/23 05:23:19;;;;;;;0.80;0.80;;;17.80;99.90;;;;;;5035322;28;20446;-82
2023/07/23 05:25:46;;;;;;;1.00;1.00;;;17.80;99.90;;;;;;5035275;28;20483;-82
2023/07/23 05:28:12;;;;;;;1.37;1.00;;;17.90;99.90;;;;;;5035578;28;20455;-83
2023/07/23 05:30:40;;;;;;;1.93;0.80;;;17.90;99.90;;;;;;5035169;28;20970;-82
2023/07/23 05:33:07;;;;;;;1.00;0.80;;;17.90;99.90;;;;;;5035208;28;20794;-82
2023/07/23 05:35:33;;;;;;;1.03;0.90;;;18.00;99.90;;;;;;5035287;28;20461;-83
2023/07/23 05:38:00;;;;;;;0.70;0.70;;;18.10;99.90;;;;;;5035107;28;20439;-83
2023/07/23 05:40:30;;;;;;;2.60;1.00;;;18.20;99.90;;;;;;5035863;28;20493;-81
2023/07/23 05:42:57;;;;;;;1.80;1.17;;;18.30;99.90;;;;;;5035265;28;20975;-81
2023/07/23 05:45:23;;;;;;;1.20;0.83;;;18.30;99.90;;;;;;5035164;28;20478;-81
2023/07/23 05:47:50;;;;;;;0.67;0.60;;;18.40;99.90;;;;;;5034847;28;20962;-81
2023/07/23 05:50:17;;;;;;;5.10;1.03;;;18.40;99.90;;;;;;5034831;28;20446;-80
2023/07/23 05:52:44;;;;;;;1.00;0.70;;;18.60;99.90;;;;;;5034795;28;20942;-80
2023/07/23 05:55:11;;;;;;;1.13;1.00;;;18.70;99.90;;;;;;5034987;28;20449;-81
2023/07/23 05:57:39;;;;;;;1.07;1.00;;;18.80;99.90;;;;;;5034984;28;20450;-81
2023/07/23 06:00:07;;;;;;;2.80;1.43;;;18.90;99.90;;;;;;5034619;28;20450;-81
2023/07/23 06:02:34;;;;;;;0.60;0.60;;;19.00;99.90;;;;;;5034906;28;20457;-81
2023/07/23 06:05:01;;;;;;;0.90;0.70;;;19.30;99.90;;;;;;5034476;28;21045;-81
2023/07/23 06:07:27;;;;;;;0.70;0.70;;;19.50;99.90;;;;;;5034801;28;20451;-81
2023/07/23 06:09:55;;;;;;;1.10;1.00;;;19.80;99.90;;;;;;5034753;28;20451;-81
2023/07/23 06:12:22;;;;;;;1.20;1.10;;;20.10;99.90;;;;;;5034339;28;20501;-83
2023/07/23 06:14:50;;;;;;;2.13;1.50;;;20.40;99.90;;;;;;5034398;28;20446;-83
2023/07/23 06:17:16;;;;;;;2.80;1.10;;;20.60;99.90;;;;;;5034716;28;20455;-83
2023/07/23 06:19:43;;;;;;;0.90;0.80;;;20.80;99.90;;;;;;5034445;28;20458;-83
2023/07/23 06:22:12;;;;;;;2.27;1.40;;;20.80;99.90;;;;;;5034543;28;20885;-83
2023/07/23 06:24:39;;;;;;;1.23;0.93;;;20.80;99.90;;;;;;5034455;28;20488;-83
2023/07/23 06:27:06;;;;;;;1.03;0.70;;;20.80;99.90;;;;;;5034060;28;20473;-83
2023/07/23 06:29:33;;;;;;;1.93;0.80;;;20.80;99.90;;;;;;5034196;28;20461;-83
2023/07/23 06:32:01;;;;;;;1.83;1.53;;;20.90;99.90;;;;;;5034072;28;20465;-83
2023/07/23 06:34:28;;;;;;;0.80;0.80;;;20.90;99.90;;;;;;5034350;28;20454;-84
2023/07/23 06:36:55;;;;;;;0.80;0.80;;;21.00;99.90;;;;;;5034610;28;20435;-83
2023/07/23 06:39:21;;;;;;;1.63;0.70;;;21.00;99.90;;;;;;5034263;28;20811;-83
2023/07/23 06:41:48;;;;;;;0.70;0.70;;;21.00;99.90;;;;;;5033859;28;20477;-81
2023/07/23 06:44:15;;;;;;;1.80;1.00;;;21.10;99.90;;;;;;5033748;28;20497;-81
2023/07/23 06:46:42;;;;;;;1.40;0.90;;;21.20;99.90;;;;;;5034028;28;20450;-81
2023/07/23 06:49:12;;;;;;;0.80;0.80;;;21.30;99.90;;;;;;5034007;28;20442;-81
2023/07/23 06:51:38;;;;;;;1.00;0.70;;;21.40;99.90;;;;;;5033926;28;20470;-81
2023/07/23 06:54:05;;;;;;;2.07;0.80;;;21.50;99.90;;;;;;5033927;28;20442;-81
2023/07/23 06:56:32;;;;;;;0.70;0.70;;;21.80;99.90;;;;;;5033887;28;20458;-83
2023/07/23 06:58:59;;;;;;;1.30;1.10;;;22.10;99.90;;;;;;5034028;28;20438;-83
2023/07/23 07:01:26;;;;;;;1.40;0.93;;;22.20;99.90;;;;;;5033752;28;20466;-84
2023/07/23 07:03:53;;;;;;;1.30;0.93;;;22.30;99.90;;;;;;5033605;28;20493;-84
2023/07/23 07:06:21;;;;;;;0.67;0.67;;;22.40;99.90;;;;;;5033295;28;20211;-83
2023/07/23 07:08:47;;;;;;;0.83;0.80;;;22.60;99.90;;;;;;5033719;28;20450;-83
2023/07/23 07:11:14;;;;;;;1.13;1.03;;;22.80;99.90;;;;;;5033657;28;20224;-84
2023/07/23 07:13:41;;;;;;;0.83;0.83;;;22.90;99.90;;;;;;5033331;28;20577;-84
2023/07/23 07:16:10;;;;;;;1.20;0.83;;;22.90;99.90;;;;;;5033573;28;20204;-84
2023/07/23 07:18:36;;;;;;;1.07;0.83;;;23.00;99.90;;;;;;5033584;28;20209;-84
2023/07/23 07:21:03;;;;;;;1.20;0.87;;;23.00;99.70;;;;;;5033447;28;20223;-84
2023/07/23 07:23:32;;;;;;;1.40;0.77;;;23.10;99.10;;;;;;5033484;28;20207;-84
2023/07/23 07:26:00;;;;;;;2.63;0.80;;;23.30;99.40;;;;;;5033417;28;20231;-85
2023/07/23 07:28:28;;;;;;;0.88;0.60;;;23.60;98.80;;;;;;5033431;28;20641;-84
2023/07/23 07:30:58;;;;;;;1.33;0.77;;;23.60;98.20;;;;;;5033324;28;20219;-84
2023/07/23 07:33:25;;;;;;;0.70;0.70;;;23.60;97.70;;;;;;5033168;28;20675;-84
2023/07/23 07:35:54;;;;;;;1.20;1.20;;;23.50;98.20;;;;;;5033096;28;20199;-84
2023/07/23 07:38:21;;;;;;;1.00;0.70;;;23.60;97.80;;;;;;5033013;28;20725;-84
2023/07/23 07:40:50;;;;;;;1.50;0.80;;;23.60;97.50;;;;;;5032975;28;20223;-84
2023/07/23 07:43:17;;;;;;;0.88;0.73;;;23.70;98.40;;;;;;5032993;28;20660;-84
2023/07/23 07:45:48;;;;;;;0.60;0.60;;;23.90;97.20;;;;;;5032887;28;20702;-84
2023/07/23 07:48:14;;;;;;;0.75;0.75;;;24.00;97.40;;;;;;5033058;28;20203;-84
2023/07/23 07:50:41;;;;;;;1.92;1.30;;;23.90;97.60;;;;;;5032867;28;20222;-84
2023/07/23 07:53:08;;;;;;;0.60;0.60;;;24.00;97.80;;;;;;5032975;28;20206;-85
2023/07/23 07:55:41;;;;;;;1.85;0.98;;;24.10;97.70;;;;;;5032881;28;20206;-84
2023/07/23 07:58:12;;;;;;;0.68;0.68;;;24.10;97.50;;;;;;5032971;28;20243;-84
2023/07/23 08:00:40;;;;;;;0.75;0.73;;;24.10;97.80;;;;;;5033102;28;20223;-84
2023/07/23 08:03:07;;;;;;;0.80;0.70;;;24.30;98.40;;;;;;5033137;28;20199;-85
2023/07/23 08:05:34;;;;;;;1.38;1.27;;;24.60;98.70;;;;;;5032752;28;20223;-85
2023/07/23 08:08:04;;;;;;;0.63;0.50;;;24.80;98.20;;;;;;5033039;28;20211;-85
2023/07/23 08:10:33;;;;;;;0.88;0.70;;;24.90;97.30;;;;;;5032969;28;20227;-83
2023/07/23 08:13:01;;;;;;;0.90;0.73;;;24.80;96.10;;;;;;5033030;28;20309;-84
2023/07/23 08:15:31;;;;;;;0.50;0.50;;;24.60;96.60;;;;;;5032998;28;20227;-84
2023/07/23 08:17:59;;;;;;;2.17;0.75;;;24.60;96.60;;;;;;5035011;28;20188;-85
2023/07/23 08:20:28;;;;;;;0.90;0.90;;;24.50;96.60;;;;;;5036507;28;20622;-84
2023/07/23 08:22:55;;;;;;;0.70;0.50;;;24.60;96.70;;;;;;5036598;28;20195;-84
2023/07/23 08:25:22;;;;;;;0.93;0.63;;;24.70;96.40;;;;;;5036431;28;20243;-83
2023/07/23 08:27:52;;;;;;;0.90;0.80;;;24.70;96.20;;;;;;5036742;28;20203;-84
2023/07/23 08:30:21;;;;;;;0.82;0.82;;;24.50;96.40;;;;;;5036342;28;20207;-84
2023/07/23 08:32:52;;;;;;;1.05;0.60;;;24.50;97.20;;;;;;5036394;28;20203;-84
2023/07/23 08:35:19;;;;;;;1.02;0.75;;;24.50;97.20;;;;;;5036761;28;20195;-84
2023/07/23 08:37:46;;;;;;;0.80;0.60;;;24.50;96.60;;;;;;5036597;28;20210;-84
2023/07/23 08:40:14;;;;;;;1.00;0.82;;;24.50;96.90;;;;;;5036416;28;20211;-84
2023/07/23 08:43:00;;;;;;;1.92;0.60;;;24.40;96.90;;;;;;5036170;28;20211;-84
2023/07/23 08:46:03;;;;;;;0.90;0.60;;;24.40;96.90;;;;;;5036405;28;20208;-84
2023/07/23 08:48:53;;;;;;;1.92;0.65;;;24.40;95.90;;;;;;5036168;28;20202;-83
2023/07/23 08:51:21;;;;;;;0.60;0.60;;;24.30;96.00;;;;;;5035955;28;20230;-84
2023/07/23 08:53:49;;;;;;;0.90;0.70;;;24.40;95.90;;;;;;5035994;28;20601;-83
2023/07/23 08:56:17;;;;;;;1.02;0.60;;;24.60;96.60;;;;;;5036205;28;20199;-85
2023/07/23 08:58:45;;;;;;;0.50;0.50;;;24.80;96.10;;;;;;5036092;28;20214;-84
2023/07/23 09:01:14;;;;;;;0.95;0.80;;;25.10;96.10;;;;;;5035829;28;20215;-84
2023/07/23 09:03:43;;;;;;;0.70;0.65;;;25.30;95.50;;;;;;5036154;28;20212;-84
2023/07/23 09:06:11;;;;;;;0.57;0.57;;;25.40;95.30;;;;;;5035693;28;20215;-83
2023/07/23 09:08:38;;;;;;;0.60;0.60;;;25.30;94.80;;;;;;5035680;28;20207;-84
2023/07/23 09:11:06;;;;;;;0.85;0.70;;;25.30;95.10;;;;;;5035598;28;20219;-84
2023/07/23 09:13:34;;;;;;;0.50;0.40;;;25.30;94.90;;;;;;5035839;28;20211;-84
2023/07/23 09:16:02;;;;;;;1.27;0.57;;;25.20;94.50;;;;;;5036902;28;20210;-83
2023/07/23 09:18:29;;;;;;;0.50;0.45;;;25.20;94.70;;;;;;5040053;28;20203;-84
2023/07/23 09:20:57;;;;;;;0.50;0.50;;;25.10;94.20;;;;;;5035747;28;20226;-84
2023/07/23 09:23:26;;;;;;;0.60;0.50;;;25.10;93.80;;;;;;5035685;28;20211;-84
2023/07/23 09:25:53;;;;;;;0.60;0.60;;;25.10;94.30;;;;;;5035159;28;20300;-84
2023/07/23 09:28:24;;;;;;;2.78;0.60;;;25.10;94.50;;;;;;5034496;28;20207;-83
2023/07/23 09:30:54;;;;;;;0.80;0.80;;;25.10;94.40;;;;;;5032098;28;20211;-83
2023/07/23 09:33:20;;;;;;;0.80;0.68;;;25.00;94.30;;;;;;5035255;28;20671;-83
2023/07/23 09:35:47;;;;;;;0.95;0.80;;;25.20;95.40;;;;;;5035483;28;20195;-83
2023/07/23 09:38:15;;;;;;;0.70;0.50;;;25.30;94.40;;;;;;5035158;28;20666;-82
2023/07/23 09:40:44;;;;;;;0.68;0.68;;;25.40;93.70;;;;;;5035075;28;20227;-81
2023/07/23 09:43:13;;;;;;;0.93;0.70;;;25.30;93.90;;;;;;5035381;28;20209;-86
2023/07/23 09:45:41;;;;;;;0.40;0.40;;;25.30;94.00;;;;;;5034957;28;20762;-85
2023/07/23 09:48:09;;;;;;;0.60;0.60;;;25.40;94.10;;;;;;5035039;28;20219;-84
2023/07/23 09:50:37;;;;;;;0.60;0.55;;;25.60;92.90;;;;;;5035168;28;20219;-84
2023/07/23 09:53:03;;;;;;;1.02;0.50;;;25.70;92.00;;;;;;5035217;28;20208;-85
2023/07/23 09:55:33;;;;;;;1.13;0.63;;;26.00;91.70;;;;;;5035174;28;20250;-85
2023/07/23 09:58:03;;;;;;;0.65;0.52;;;26.00;92.40;;;;;;5035119;28;20199;-85
2023/07/23 10:00:30;;;;;;;0.80;0.52;;;26.00;92.10;;;;;;5035079;28;20220;-84
2023/07/23 10:02:58;;;;;;;1.25;0.90;;;26.00;91.10;;;;;;5034667;28;20554;-84
2023/07/23 10:05:26;;;;;;;1.38;0.98;;;25.90;91.40;;;;;;5034864;28;20234;-84
2023/07/23 10:07:54;;;;;;;0.98;0.70;;;25.90;92.00;;;;;;5034666;28;20184;-84
2023/07/23 10:10:21;;;;;;;0.60;0.55;;;25.90;91.90;;;;;;5034729;28;20211;-84
2023/07/23 10:12:50;;;;;;;1.95;0.50;;;26.00;92.50;;;;;;5034973;28;20206;-84
2023/07/23 10:15:17;;;;;;;1.25;0.70;;;26.30;91.80;;;;;;5034692;28;20285;-84
2023/07/23 10:17:47;;;;;;;0.60;0.60;;;26.50;91.70;;;;;;5034807;28;20225;-84
2023/07/23 10:20:16;;;;;;;0.80;0.65;;;26.70;91.50;;;;;;5034606;28;20195;-84
2023/07/23 10:22:45;;;;;;;0.60;0.60;;;26.90;90.70;;;;;;5034641;28;20218;-83
2023/07/23 10:25:32;;;;;;;4.22;0.85;;;26.90;90.20;;;;;;5034031;28;20772;-84
2023/07/23 10:28:01;;;;;;;0.60;0.60;;;27.10;90.00;;;;;;5034548;28;20616;-83
2023/07/23 10:30:29;;;;;;;1.50;0.75;;;27.00;90.50;;;;;;5034459;28;20235;-84
2023/07/23 10:33:29;;;;;;;0.70;0.70;;;27.00;90.10;;;;;;5034268;28;20567;-84
2023/07/23 10:36:05;;;;;;;2.05;0.80;;;26.90;90.00;;;;;;5034431;28;20269;-84
2023/07/23 10:38:34;;;;;;;0.77;0.70;;;26.90;89.40;;;;;;5034054;28;20236;-83
2023/07/23 10:41:01;;;;;;;0.93;0.90;;;26.80;89.80;;;;;;5033832;28;20227;-84
2023/07/23 10:43:40;;;;;;;1.02;0.80;;;26.70;89.50;;;;;;5034255;28;20199;-83
2023/07/23 10:46:08;;;;;;;0.60;0.47;;;26.70;89.80;;;;;;5034098;28;20221;-83
2023/07/23 10:48:49;;;;;;;1.00;0.77;;;26.70;90.40;;;;;;5034148;28;20230;-84
2023/07/23 10:51:17;;;;;;;0.88;0.88;;;26.60;90.30;;;;;;5034036;28;20232;-84
2023/07/23 10:53:55;;;;;;;0.55;0.50;;;26.50;90.20;;;;;;5033752;28;20702;-83
2023/07/23 10:56:23;;;;;;;0.70;0.50;;;26.60;90.60;;;;;;5034486;28;20272;-84
2023/07/23 10:58:54;;;;;;;0.70;0.52;;;26.70;91.00;;;;;;5033792;28;20626;-84
2023/07/23 11:01:22;;;;;;;0.60;0.60;;;26.80;90.50;;;;;;5034025;28;20211;-85
2023/07/23 11:03:49;;;;;;;1.25;0.70;;;26.70;89.40;;;;;;5033954;28;20215;-84
2023/07/23 11:06:30;;;;;;;0.80;0.80;;;26.60;89.80;;;;;;5033901;28;20227;-84
2023/07/23 11:08:58;;;;;;;0.80;0.60;;;26.50;88.50;;;;;;5033682;28;20701;-84
2023/07/23 11:11:39;;;;;;;1.40;0.70;;;26.50;89.60;;;;;;5033803;28;20223;-84
2023/07/23 11:14:19;;;;;;;0.80;0.68;;;26.50;88.80;;;;;;5033593;28;20199;-84
2023/07/23 11:16:46;;;;;;;1.00;0.70;;;26.90;89.00;;;;;;5034460;28;20192;-84
2023/07/23 11:19:13;;;;;;;1.48;0.63;;;27.20;87.30;;;;;;5033437;28;20210;-84
2023/07/23 11:21:49;;;;;;;0.98;0.63;;;27.40;86.00;;;;;;5033315;28;20733;-84
2023/07/23 11:24:16;;;;;;;0.80;0.60;;;27.60;85.20;;;;;;5033540;28;20203;-84
2023/07/23 11:26:43;;;;;;;1.30;0.73;;;27.60;83.30;;;;;;5033162;28;20239;-85
2023/07/23 11:29:10;;;;;;;1.30;0.70;;;27.60;82.40;;;;;;5033456;28;20217;-85
2023/07/23 11:31:39;;;;;;;1.08;0.95;;;27.60;83.00;;;;;;5033177;28;20228;-84
2023/07/23 11:34:06;;;;;;;0.85;0.50;;;27.70;82.30;;;;;;5033134;28;20204;-84
2023/07/23 11:36:33;;;;;;;1.00;0.75;;;27.60;82.40;;;;;;5033461;28;20223;-84
2023/07/23 11:39:01;;;;;;;1.65;0.90;;;27.70;80.80;;;;;;5033503;28;20199;-85
2023/07/23 11:41:29;;;;;;;0.70;0.70;;;27.50;82.60;;;;;;5033440;28;20310;-85
2023/07/23 11:43:57;;;;;;;0.55;0.50;;;27.40;82.50;;;;;;5033200;28;20752;-83
2023/07/23 11:46:24;;;;;;;0.93;0.77;;;27.40;82.80;;;;;;5033292;28;20242;-84
2023/07/23 11:48:54;;;;;;;0.80;0.80;;;27.50;83.00;;;;;;5033449;28;20211;-83
2023/07/23 11:51:21;;;;;;;0.68;0.68;;;27.50;81.80;;;;;;5033071;28;20780;-84
2023/07/23 11:53:51;;;;;;;0.55;0.55;;;27.50;82.50;;;;;;5036534;28;20207;-84
2023/07/23 11:56:18;;;;;;;0.95;0.95;;;27.50;79.90;;;;;;5037221;28;20191;-84
2023/07/23 11:58:45;;;;;;;0.88;0.80;;;27.50;78.60;;;;;;5037369;28;20207;-84
2023/07/23 12:01:12;;;;;;;0.50;0.50;;;27.20;78.60;;;;;;5037344;28;20223;-84
2023/07/23 12:03:40;;;;;;;0.98;0.70;;;27.10;79.90;;;;;;5037370;28;20198;-85
2023/07/23 12:06:08;;;;;;;0.70;0.70;;;27.10;81.10;;;;;;5036976;28;20219;-83
2023/07/23 12:08:38;;;;;;;0.80;0.80;;;27.10;80.50;;;;;;5037315;28;20211;-84
2023/07/23 12:11:10;;;;;;;0.70;0.70;;;27.10;81.00;;;;;;5037419;28;20226;-83
2023/07/23 12:13:43;;;;;;;1.10;0.80;;;27.10;79.60;;;;;;5036728;28;20187;-84
2023/07/23 12:16:14;;;;;;;0.80;0.70;;;27.00;80.60;;;;;;5037011;28;20179;-83
2023/07/23 12:18:45;;;;;;;2.28;1.20;;;27.10;81.30;;;;;;5036666;28;20643;-84
2023/07/23 12:21:17;;;;;;;0.77;0.65;;;27.00;81.50;;;;;;5036840;28;20234;-84
2023/07/23 12:23:44;;;;;;;0.60;0.60;;;26.90;81.20;;;;;;5036857;28;20199;-84
2023/07/23 12:26:10;;;;;;;0.70;0.70;;;26.80;83.50;;;;;;5036329;28;20231;-84
2023/07/23 12:28:37;;;;;;;1.88;1.20;;;26.70;79.90;;;;;;5036727;28;20199;-84
2023/07/23 12:31:04;;;;;;;1.17;1.08;;;26.50;81.80;;;;;;5036664;28;20223;-83
2023/07/23 12:33:31;;;;;;;1.15;1.00;;;26.50;81.00;;;;;;5036565;28;20207;-84
2023/07/23 12:35:57;;;;;;;1.88;0.60;;;26.40;82.50;;;;;;5036581;28;20199;-84
2023/07/23 12:38:25;;;;;;;0.82;0.82;;;26.30;82.10;;;;;;5036417;28;20211;-84
2023/07/23 12:40:52;;;;;;;1.10;0.82;;;26.10;81.70;;;;;;5036594;28;20220;-84
2023/07/23 12:43:19;;;;;;;1.17;0.85;;;26.00;82.50;;;;;;5036489;28;20199;-83
2023/07/23 12:45:46;;;;;;;0.60;0.60;;;26.00;81.90;;;;;;5036464;28;20219;-84
2023/07/23 12:48:12;;;;;;;1.45;0.70;;;25.90;80.60;;;;;;5036446;28;20203;-84
2023/07/23 12:50:39;;;;;;;2.80;0.80;;;25.80;79.40;;;;;;5036269;28;20223;-83
2023/07/23 12:53:06;;;;;;;0.95;0.80;;;25.80;81.00;;;;;;5036206;28;20216;-84